sensor_id;sensor_type;location;lat;lon;timestamp;pressure;altitude;pressure_sealevel;temperature;humidity
62655;BME280;48717;55.556;37.816;2023-02-24T00:01:50;99166.06;;;-10.36;68.21
62655;BME280;48717;55.556;37.816;2023-02-24T00:04:19;99164.44;;;-10.36;67.87
62655;BME280;48717;55.556;37.816;2023-02-24T00:06:47;99141.53;;;-10.47;68.18
62655;BME280;48717;55.556;37.816;2023-02-24T00:09:20;99133.53;;;-10.40;68.13
62655;BME280;48717;55.556;37.816;2023-02-24T00:11:53;99162.22;;;-10.31;67.52
62655;BME280;48717;55.556;37.816;2023-02-24T00:14:22;99162.97;;;-10.32;67.52
62655;BME280;48717;55.556;37.816;2023-02-24T00:16:50;99133.31;;;-10.43;67.71
62655;BME280;48717;55.556;37.816;2023-02-24T00:19:20;99159.44;;;-10.34;67.57
62655;BME280;48717;55.556;37.816;2023-02-24T00:21:50;99120.25;;;-10.48;67.58
62655;BME280;48717;55.556;37.816;2023-02-24T00:24:17;99125.88;;;-10.40;67.93
62655;BME280;48717;55.556;37.816;2023-02-24T00:26:44;99134.19;;;-10.31;67.56
62655;BME280;48717;55.556;37.816;2023-02-24T00:29:14;99091.69;;;-10.56;67.32
62655;BME280;48717;55.556;37.816;2023-02-24T00:31:41;99101.88;;;-10.56;67.81
62655;BME280;48717;55.556;37.816;2023-02-24T00:34:09;99124.84;;;-10.30;67.74
62655;BME280;48717;55.556;37.816;2023-02-24T00:36:38;99120.19;;;-10.36;67.59
62655;BME280;48717;55.556;37.816;2023-02-24T00:39:07;99122.28;;;-10.30;67.13
62655;BME280;48717;55.556;37.816;2023-02-24T00:41:43;99088.88;;;-10.47;66.81
62655;BME280;48717;55.556;37.816;2023-02-24T00:44:13;99056.34;;;-10.63;66.90
62655;BME280;48717;55.556;37.816;2023-02-24T00:46:45;99108.00;;;-10.28;66.25
62655;BME280;48717;55.556;37.816;2023-02-24T00:49:18;99084.09;;;-10.42;66.54
62655;BME280;48717;55.556;37.816;2023-02-24T00:51:47;99087.66;;;-10.40;66.60
62655;BME280;48717;55.556;37.816;2023-02-24T00:54:15;99094.38;;;-10.29;66.03
62655;BME280;48717;55.556;37.816;2023-02-24T00:56:45;99067.03;;;-10.43;65.80
62655;BME280;48717;55.556;37.816;2023-02-24T00:59:16;99038.69;;;-10.48;65.59
62655;BME280;48717;55.556;37.816;2023-02-24T01:01:45;99071.19;;;-10.32;65.52
62655;BME280;48717;55.556;37.816;2023-02-24T01:04:14;99029.63;;;-10.44;64.77
62655;BME280;48717;55.556;37.816;2023-02-24T01:06:45;99053.91;;;-10.36;65.16
62655;BME280;48717;55.556;37.816;2023-02-24T01:09:14;99080.72;;;-10.17;65.54
62655;BME280;48717;55.556;37.816;2023-02-24T01:11:44;99071.38;;;-10.17;64.89
62655;BME280;48717;55.556;37.816;2023-02-24T01:14:32;99017.63;;;-10.45;64.75
62655;BME280;48717;55.556;37.816;2023-02-24T01:17:00;99067.19;;;-10.16;64.75
62655;BME280;48717;55.556;37.816;2023-02-24T01:19:29;99003.91;;;-10.47;63.93
62655;BME280;48717;55.556;37.816;2023-02-24T01:22:04;99041.91;;;-10.25;63.88
62655;BME280;48717;55.556;37.816;2023-02-24T01:24:37;99063.50;;;-10.08;63.58
62655;BME280;48717;55.556;37.816;2023-02-24T01:27:06;99060.03;;;-10.09;63.31
62655;BME280;48717;55.556;37.816;2023-02-24T01:29:35;99059.19;;;-10.09;63.64
62655;BME280;48717;55.556;37.816;2023-02-24T01:32:16;99057.59;;;-10.07;63.44
62655;BME280;48717;55.556;37.816;2023-02-24T01:34:52;98890.19;;;-10.96;63.27
62655;BME280;48717;55.556;37.816;2023-02-24T01:37:26;98905.44;;;-10.84;62.93
62655;BME280;48717;55.556;37.816;2023-02-24T01:39:54;99026.78;;;-10.10;63.13
62655;BME280;48717;55.556;37.816;2023-02-24T01:42:21;98958.03;;;-10.47;62.28
62655;BME280;48717;55.556;37.816;2023-02-24T01:45:05;98848.59;;;-11.09;63.63
62655;BME280;48717;55.556;37.816;2023-02-24T01:47:39;98954.03;;;-10.44;63.05
62655;BME280;48717;55.556;37.816;2023-02-24T01:50:08;99026.53;;;-10.01;63.20
62655;BME280;48717;55.556;37.816;2023-02-24T01:52:36;98973.06;;;-10.25;63.00
62655;BME280;48717;55.556;37.816;2023-02-24T01:55:12;98997.97;;;-10.09;62.98
62655;BME280;48717;55.556;37.816;2023-02-24T01:57:41;98971.53;;;-10.23;62.95
62655;BME280;48717;55.556;37.816;2023-02-24T02:00:10;99000.13;;;-10.02;63.08
62655;BME280;48717;55.556;37.816;2023-02-24T02:02:43;98985.13;;;-10.11;63.44
62655;BME280;48717;55.556;37.816;2023-02-24T02:05:12;98982.19;;;-10.03;63.33
62655;BME280;48717;55.556;37.816;2023-02-24T02:07:40;98956.53;;;-10.18;63.27
62655;BME280;48717;55.556;37.816;2023-02-24T02:10:10;98981.09;;;-10.07;63.41
62655;BME280;48717;55.556;37.816;2023-02-24T02:12:40;98996.41;;;-10.07;63.40
62655;BME280;48717;55.556;37.816;2023-02-24T02:15:12;98977.56;;;-10.09;63.27
62655;BME280;48717;55.556;37.816;2023-02-24T02:18:11;98979.13;;;-10.11;63.08
62655;BME280;48717;55.556;37.816;2023-02-24T02:26:34;98970.50;;;-10.13;63.68
62655;BME280;48717;55.556;37.816;2023-02-24T02:37:14;98953.22;;;-10.17;63.33
62655;BME280;48717;55.556;37.816;2023-02-24T02:40:09;98947.91;;;-10.20;62.61
62655;BME280;48717;55.556;37.816;2023-02-24T02:43:02;98919.81;;;-10.34;62.91
62655;BME280;48717;55.556;37.816;2023-02-24T02:50:57;98902.75;;;-10.35;63.10
62655;BME280;48717;55.556;37.816;2023-02-24T02:56:18;98864.88;;;-10.42;62.81
62655;BME280;48717;55.556;37.816;2023-02-24T02:58:51;98841.16;;;-10.55;62.64
62655;BME280;48717;55.556;37.816;2023-02-24T03:01:27;98901.78;;;-10.24;63.14
62655;BME280;48717;55.556;37.816;2023-02-24T03:03:59;98878.06;;;-10.23;62.97
62655;BME280;48717;55.556;37.816;2023-02-24T03:06:38;98810.56;;;-10.68;63.22
62655;BME280;48717;55.556;37.816;2023-02-24T03:09:21;98856.31;;;-10.31;63.10
62655;BME280;48717;55.556;37.816;2023-02-24T03:11:55;98809.63;;;-10.57;63.22
62655;BME280;48717;55.556;37.816;2023-02-24T03:14:28;98808.81;;;-10.56;63.21
62655;BME280;48717;55.556;37.816;2023-02-24T03:16:58;98850.81;;;-10.24;63.35
62655;BME280;48717;55.556;37.816;2023-02-24T03:19:36;98852.38;;;-10.26;63.10
62655;BME280;48717;55.556;37.816;2023-02-24T03:22:13;98853.34;;;-10.24;62.99
62655;BME280;48717;55.556;37.816;2023-02-24T03:24:42;98815.88;;;-10.38;63.01
62655;BME280;48717;55.556;37.816;2023-02-24T03:28:00;98833.53;;;-10.28;63.15
62655;BME280;48717;55.556;37.816;2023-02-24T03:30:28;98804.44;;;-10.45;63.44
62655;BME280;48717;55.556;37.816;2023-02-24T03:33:02;98832.47;;;-10.31;63.78
62655;BME280;48717;55.556;37.816;2023-02-24T03:35:36;98768.28;;;-10.78;63.21
62655;BME280;48717;55.556;37.816;2023-02-24T03:38:05;98745.75;;;-10.85;63.83
62655;BME280;48717;55.556;37.816;2023-02-24T03:40:37;98822.56;;;-10.40;64.25
62655;BME280;48717;55.556;37.816;2023-02-24T03:43:30;98802.16;;;-10.40;64.35
62655;BME280;48717;55.556;37.816;2023-02-24T03:45:59;98750.78;;;-10.73;64.26
62655;BME280;48717;55.556;37.816;2023-02-24T03:48:28;98790.69;;;-10.47;64.06
62655;BME280;48717;55.556;37.816;2023-02-24T03:50:59;98777.28;;;-10.58;64.71
62655;BME280;48717;55.556;37.816;2023-02-24T03:54:01;98782.66;;;-10.53;63.88
62655;BME280;48717;55.556;37.816;2023-02-24T03:59:32;98766.88;;;-10.61;64.81
62655;BME280;48717;55.556;37.816;2023-02-24T04:02:31;98765.28;;;-10.59;64.53
62655;BME280;48717;55.556;37.816;2023-02-24T04:05:14;98695.75;;;-10.97;64.36
62655;BME280;48717;55.556;37.816;2023-02-24T04:08:01;98760.19;;;-10.59;64.90
62655;BME280;48717;55.556;37.816;2023-02-24T04:10:43;98758.44;;;-10.60;64.76
62655;BME280;48717;55.556;37.816;2023-02-24T04:13:33;98758.81;;;-10.54;64.55
62655;BME280;48717;55.556;37.816;2023-02-24T04:19:00;98726.09;;;-10.61;64.57
62655;BME280;48717;55.556;37.816;2023-02-24T04:21:33;98724.94;;;-10.53;64.53
62655;BME280;48717;55.556;37.816;2023-02-24T04:24:05;98707.47;;;-10.60;65.02
62655;BME280;48717;55.556;37.816;2023-02-24T04:26:38;98683.16;;;-10.68;64.71
62655;BME280;48717;55.556;37.816;2023-02-24T04:29:12;98721.03;;;-10.47;64.92
62655;BME280;48717;55.556;37.816;2023-02-24T04:31:48;98707.66;;;-10.43;64.33
62655;BME280;48717;55.556;37.816;2023-02-24T04:34:16;98674.75;;;-10.67;64.46
62655;BME280;48717;55.556;37.816;2023-02-24T04:36:47;98719.13;;;-10.37;64.83
62655;BME280;48717;55.556;37.816;2023-02-24T04:39:20;98682.22;;;-10.57;64.04
62655;BME280;48717;55.556;37.816;2023-02-24T04:41:52;98698.44;;;-10.41;64.09
62655;BME280;48717;55.556;37.816;2023-02-24T04:44:21;98719.81;;;-10.26;64.07
62655;BME280;48717;55.556;37.816;2023-02-24T04:46:49;98674.66;;;-10.55;63.98
62655;BME280;48717;55.556;37.816;2023-02-24T04:49:18;98718.53;;;-10.19;64.23
62655;BME280;48717;55.556;37.816;2023-02-24T04:51:45;98720.19;;;-10.19;64.53
62655;BME280;48717;55.556;37.816;2023-02-24T04:54:14;98681.16;;;-10.32;64.16
62655;BME280;48717;55.556;37.816;2023-02-24T04:56:50;98705.31;;;-10.13;64.36
62655;BME280;48717;55.556;37.816;2023-02-24T04:59:18;98683.72;;;-10.32;64.18
62655;BME280;48717;55.556;37.816;2023-02-24T05:01:47;98655.00;;;-10.43;64.34
62655;BME280;48717;55.556;37.816;2023-02-24T05:04:17;98671.84;;;-10.18;64.22
62655;BME280;48717;55.556;37.816;2023-02-24T05:06:45;98693.22;;;-10.02;64.24
62655;BME280;48717;55.556;37.816;2023-02-24T05:09:14;98655.66;;;-10.18;64.17
62655;BME280;48717;55.556;37.816;2023-02-24T05:11:49;98635.78;;;-10.24;64.05
62655;BME280;48717;55.556;37.816;2023-02-24T05:14:18;98687.78;;;-9.93;64.42
62655;BME280;48717;55.556;37.816;2023-02-24T05:16:47;98645.66;;;-10.15;64.11
62655;BME280;48717;55.556;37.816;2023-02-24T05:19:17;98683.00;;;-9.89;63.81
62655;BME280;48717;55.556;37.816;2023-02-24T05:22:07;98660.72;;;-9.91;64.24
62655;BME280;48717;55.556;37.816;2023-02-24T05:24:38;98667.00;;;-9.86;64.15
62655;BME280;48717;55.556;37.816;2023-02-24T05:27:07;98661.28;;;-9.82;64.10
62655;BME280;48717;55.556;37.816;2023-02-24T05:29:37;98659.69;;;-9.80;64.11
62655;BME280;48717;55.556;37.816;2023-02-24T05:32:06;98619.72;;;-9.94;64.15
62655;BME280;48717;55.556;37.816;2023-02-24T05:34:34;98655.00;;;-9.74;63.81
62655;BME280;48717;55.556;37.816;2023-02-24T05:37:02;98590.91;;;-10.07;64.08
62655;BME280;48717;55.556;37.816;2023-02-24T05:39:36;98616.06;;;-9.85;64.06
62655;BME280;48717;55.556;37.816;2023-02-24T05:42:03;98615.47;;;-9.65;63.87
62655;BME280;48717;55.556;37.816;2023-02-24T05:44:36;98623.53;;;-9.59;63.70
62655;BME280;48717;55.556;37.816;2023-02-24T05:47:03;98615.06;;;-9.58;63.50
62655;BME280;48717;55.556;37.816;2023-02-24T05:49:33;98601.84;;;-9.66;64.03
62655;BME280;48717;55.556;37.816;2023-02-24T05:52:04;98614.91;;;-9.46;63.66
62655;BME280;48717;55.556;37.816;2023-02-24T05:54:41;98615.59;;;-9.49;63.28
62655;BME280;48717;55.556;37.816;2023-02-24T05:57:12;98622.06;;;-9.40;63.52
62655;BME280;48717;55.556;37.816;2023-02-24T05:59:40;98609.81;;;-9.46;63.57
62655;BME280;48717;55.556;37.816;2023-02-24T06:02:14;98612.97;;;-9.35;63.44
62655;BME280;48717;55.556;37.816;2023-02-24T06:04:45;98564.22;;;-9.55;63.46
62655;BME280;48717;55.556;37.816;2023-02-24T06:09:55;98599.59;;;-9.31;63.69
62655;BME280;48717;55.556;37.816;2023-02-24T06:12:34;98586.31;;;-9.40;62.85
62655;BME280;48717;55.556;37.816;2023-02-24T06:15:02;98567.91;;;-9.35;63.25
62655;BME280;48717;55.556;37.816;2023-02-24T06:17:33;98567.03;;;-9.20;63.68
62655;BME280;48717;55.556;37.816;2023-02-24T06:20:00;98547.13;;;-9.26;63.14
62655;BME280;48717;55.556;37.816;2023-02-24T06:22:28;98526.88;;;-9.38;63.83
62655;BME280;48717;55.556;37.816;2023-02-24T06:24:55;98546.09;;;-9.29;63.85
62655;BME280;48717;55.556;37.816;2023-02-24T06:27:23;98537.72;;;-9.27;63.24
62655;BME280;48717;55.556;37.816;2023-02-24T06:29:52;98533.59;;;-9.25;63.98
62655;BME280;48717;55.556;37.816;2023-02-24T06:32:22;98552.94;;;-8.98;63.94
62655;BME280;48717;55.556;37.816;2023-02-24T06:34:50;98533.09;;;-9.02;64.60
62655;BME280;48717;55.556;37.816;2023-02-24T06:37:18;98543.94;;;-8.92;63.94
62655;BME280;48717;55.556;37.816;2023-02-24T06:39:45;98538.50;;;-8.98;64.60
62655;BME280;48717;55.556;37.816;2023-02-24T06:42:12;98493.25;;;-9.15;65.14
62655;BME280;48717;55.556;37.816;2023-02-24T06:44:40;98510.22;;;-9.01;66.03
62655;BME280;48717;55.556;37.816;2023-02-24T06:47:11;98499.00;;;-9.03;65.97
62655;BME280;48717;55.556;37.816;2023-02-24T06:49:40;98526.31;;;-8.87;66.38
62655;BME280;48717;55.556;37.816;2023-02-24T06:52:09;98490.72;;;-8.99;66.47
62655;BME280;48717;55.556;37.816;2023-02-24T06:54:37;98533.50;;;-8.80;67.77
62655;BME280;48717;55.556;37.816;2023-02-24T06:57:04;98530.22;;;-8.77;68.43
62655;BME280;48717;55.556;37.816;2023-02-24T06:59:32;98497.94;;;-8.92;69.25
62655;BME280;48717;55.556;37.816;2023-02-24T07:02:01;98448.84;;;-9.18;69.80
62655;BME280;48717;55.556;37.816;2023-02-24T07:04:29;98493.00;;;-8.88;70.32
62655;BME280;48717;55.556;37.816;2023-02-24T07:07:02;98446.38;;;-9.16;71.72
62655;BME280;48717;55.556;37.816;2023-02-24T07:09:30;98500.91;;;-8.84;72.12
62655;BME280;48717;55.556;37.816;2023-02-24T07:11:58;98498.22;;;-8.70;72.53
62655;BME280;48717;55.556;37.816;2023-02-24T07:14:29;98488.56;;;-8.76;73.88
62655;BME280;48717;55.556;37.816;2023-02-24T07:17:00;98465.34;;;-8.96;74.74
62655;BME280;48717;55.556;37.816;2023-02-24T07:19:38;98497.50;;;-8.68;76.12
62655;BME280;48717;55.556;37.816;2023-02-24T07:22:06;98500.00;;;-8.69;76.64
62655;BME280;48717;55.556;37.816;2023-02-24T07:24:36;98356.88;;;-9.51;77.46
62655;BME280;48717;55.556;37.816;2023-02-24T07:27:16;98273.56;;;-9.97;79.22
62655;BME280;48717;55.556;37.816;2023-02-24T07:30:02;98404.50;;;-9.20;79.51
62655;BME280;48717;55.556;37.816;2023-02-24T07:32:32;98298.56;;;-9.91;79.70
62655;BME280;48717;55.556;37.816;2023-02-24T07:35:04;98313.44;;;-9.67;80.53
62655;BME280;48717;55.556;37.816;2023-02-24T07:38:22;98456.06;;;-8.62;81.61
62655;BME280;48717;55.556;37.816;2023-02-24T08:22:57;98275.50;;;-8.78;81.11
62655;BME280;48717;55.556;37.816;2023-02-24T08:25:33;98276.41;;;-8.77;81.25
62655;BME280;48717;55.556;37.816;2023-02-24T08:31:29;98291.25;;;-8.52;81.75
62655;BME280;48717;55.556;37.816;2023-02-24T08:34:15;98201.16;;;-9.01;81.50
62655;BME280;48717;55.556;37.816;2023-02-24T08:46:23;98297.88;;;-8.21;83.09
62655;BME280;48717;55.556;37.816;2023-02-24T08:49:16;98177.06;;;-8.88;81.88
62655;BME280;48717;55.556;37.816;2023-02-24T08:51:48;98197.72;;;-8.67;81.51
62655;BME280;48717;55.556;37.816;2023-02-24T08:54:22;98385.88;;;-7.46;82.03
62655;BME280;48717;55.556;37.816;2023-02-24T08:57:05;98258.75;;;-8.36;82.05
62655;BME280;48717;55.556;37.816;2023-02-24T08:59:47;98209.53;;;-8.50;82.26
62655;BME280;48717;55.556;37.816;2023-02-24T09:02:26;98397.06;;;-7.44;82.69
62655;BME280;48717;55.556;37.816;2023-02-24T09:05:05;98384.06;;;-7.49;82.72
62655;BME280;48717;55.556;37.816;2023-02-24T09:07:41;98313.25;;;-7.84;82.24
62655;BME280;48717;55.556;37.816;2023-02-24T09:10:27;98164.69;;;-8.62;83.59
62655;BME280;48717;55.556;37.816;2023-02-24T09:12:56;98345.75;;;-7.45;83.52
62655;BME280;48717;55.556;37.816;2023-02-24T09:15:26;98216.19;;;-8.18;83.95
62655;BME280;48717;55.556;37.816;2023-02-24T09:18:10;98169.66;;;-8.47;82.56
62655;BME280;48717;55.556;37.816;2023-02-24T09:20:48;98211.94;;;-8.17;84.29
62655;BME280;48717;55.556;37.816;2023-02-24T09:23:40;98198.38;;;-8.16;83.52
62655;BME280;48717;55.556;37.816;2023-02-24T09:26:21;98242.25;;;-7.89;83.89
62655;BME280;48717;55.556;37.816;2023-02-24T09:29:00;98186.28;;;-8.19;84.20
62655;BME280;48717;55.556;37.816;2023-02-24T09:31:56;98191.03;;;-8.08;83.79
62655;BME280;48717;55.556;37.816;2023-02-24T09:34:37;98312.88;;;-7.18;84.07
62655;BME280;48717;55.556;37.816;2023-02-24T09:37:18;98121.16;;;-8.27;83.89
62655;BME280;48717;55.556;37.816;2023-02-24T09:40:00;98201.53;;;-7.84;84.66
62655;BME280;48717;55.556;37.816;2023-02-24T09:42:52;98199.09;;;-7.81;84.49
62655;BME280;48717;55.556;37.816;2023-02-24T09:45:35;98229.19;;;-7.57;85.44
62655;BME280;48717;55.556;37.816;2023-02-24T09:48:24;98160.38;;;-7.89;85.44
62655;BME280;48717;55.556;37.816;2023-02-24T09:50:59;98169.28;;;-7.80;85.18
62655;BME280;48717;55.556;37.816;2023-02-24T09:53:44;98231.56;;;-7.42;85.91
62655;BME280;48717;55.556;37.816;2023-02-24T09:59:28;98319.66;;;-6.80;85.26
62655;BME280;48717;55.556;37.816;2023-02-24T10:02:32;98305.19;;;-6.78;85.19
62655;BME280;48717;55.556;37.816;2023-02-24T10:05:40;98312.97;;;-6.77;85.38
62655;BME280;48717;55.556;37.816;2023-02-24T10:08:32;98144.22;;;-7.68;85.02
62655;BME280;48717;55.556;37.816;2023-02-24T10:11:10;98140.81;;;-7.49;84.41
62655;BME280;48717;55.556;37.816;2023-02-24T10:13:57;98215.25;;;-7.04;84.70
62655;BME280;48717;55.556;37.816;2023-02-24T10:16:32;98253.63;;;-6.65;84.53
62655;BME280;48717;55.556;37.816;2023-02-24T10:19:21;98282.88;;;-6.40;84.68
62655;BME280;48717;55.556;37.816;2023-02-24T10:21:57;98271.34;;;-6.29;84.38
62655;BME280;48717;55.556;37.816;2023-02-24T10:24:44;98239.06;;;-6.45;84.03
62655;BME280;48717;55.556;37.816;2023-02-24T10:27:21;98232.28;;;-6.44;84.09
62655;BME280;48717;55.556;37.816;2023-02-24T10:35:15;98257.16;;;-6.20;83.87
62655;BME280;48717;55.556;37.816;2023-02-24T10:37:43;98155.16;;;-6.70;84.21
62655;BME280;48717;55.556;37.816;2023-02-24T10:40:13;98234.81;;;-6.23;83.99
62655;BME280;48717;55.556;37.816;2023-02-24T10:43:02;98222.53;;;-6.30;83.25
62655;BME280;48717;55.556;37.816;2023-02-24T10:45:30;98219.28;;;-6.26;84.38
62655;BME280;48717;55.556;37.816;2023-02-24T10:48:06;98256.91;;;-6.05;84.60
62655;BME280;48717;55.556;37.816;2023-02-24T10:50:42;98242.72;;;-5.95;84.87
62655;BME280;48717;55.556;37.816;2023-02-24T10:53:25;98225.09;;;-5.86;84.32
62655;BME280;48717;55.556;37.816;2023-02-24T10:56:04;98250.91;;;-5.83;83.63
62655;BME280;48717;55.556;37.816;2023-02-24T10:59:03;98252.53;;;-5.85;83.55
62655;BME280;48717;55.556;37.816;2023-02-24T11:01:54;98182.47;;;-6.05;83.19
62655;BME280;48717;55.556;37.816;2023-02-24T11:04:35;98231.06;;;-5.64;83.24
62655;BME280;48717;55.556;37.816;2023-02-24T11:07:21;98214.72;;;-5.89;82.43
62655;BME280;48717;55.556;37.816;2023-02-24T11:10:08;98213.31;;;-5.81;82.83
62655;BME280;48717;55.556;37.816;2023-02-24T11:12:46;98209.69;;;-5.86;82.85
62655;BME280;48717;55.556;37.816;2023-02-24T11:15:48;98195.28;;;-5.82;82.51
62655;BME280;48717;55.556;37.816;2023-02-24T11:18:35;98117.09;;;-6.38;82.43
62655;BME280;48717;55.556;37.816;2023-02-24T11:21:10;98144.38;;;-6.17;82.67
62655;BME280;48717;55.556;37.816;2023-02-24T11:24:12;98168.41;;;-5.92;81.72
62655;BME280;48717;55.556;37.816;2023-02-24T11:26:46;98099.59;;;-6.25;81.61
62655;BME280;48717;55.556;37.816;2023-02-24T11:29:38;98208.22;;;-5.56;81.84
62655;BME280;48717;55.556;37.816;2023-02-24T11:35:32;98207.34;;;-5.57;80.31
62655;BME280;48717;55.556;37.816;2023-02-24T11:41:52;98084.69;;;-6.36;82.12
62655;BME280;48717;55.556;37.816;2023-02-24T11:44:48;98082.56;;;-6.46;82.19
62655;BME280;48717;55.556;37.816;2023-02-24T11:47:30;98069.03;;;-6.42;82.50
62655;BME280;48717;55.556;37.816;2023-02-24T11:50:43;98184.97;;;-5.61;82.23
62655;BME280;48717;55.556;37.816;2023-02-24T11:53:34;97987.81;;;-6.66;81.27
62655;BME280;48717;55.556;37.816;2023-02-24T11:56:32;97982.22;;;-6.78;81.53
62655;BME280;48717;55.556;37.816;2023-02-24T12:00:00;98173.75;;;-5.63;80.98
62655;BME280;48717;55.556;37.816;2023-02-24T12:02:38;98171.16;;;-5.63;81.04
62655;BME280;48717;55.556;37.816;2023-02-24T12:05:25;98138.72;;;-5.84;81.30
62655;BME280;48717;55.556;37.816;2023-02-24T12:08:03;98160.91;;;-5.63;81.04
62655;BME280;48717;55.556;37.816;2023-02-24T12:10:42;98091.81;;;-6.04;81.73
62655;BME280;48717;55.556;37.816;2023-02-24T12:13:28;98007.91;;;-6.54;80.55
62655;BME280;48717;55.556;37.816;2023-02-24T12:16:17;98043.16;;;-6.25;81.06
62655;BME280;48717;55.556;37.816;2023-02-24T12:22:04;98044.97;;;-6.23;81.32
62655;BME280;48717;55.556;37.816;2023-02-24T12:24:36;97971.66;;;-6.63;81.79
62655;BME280;48717;55.556;37.816;2023-02-24T12:34:04;98126.28;;;-5.73;82.48
62655;BME280;48717;55.556;37.816;2023-02-24T12:37:17;98051.97;;;-6.19;82.50
62655;BME280;48717;55.556;37.816;2023-02-24T12:40:04;98106.91;;;-5.65;83.42
62655;BME280;48717;55.556;37.816;2023-02-24T12:43:19;98137.53;;;-5.46;82.81
62655;BME280;48717;55.556;37.816;2023-02-24T12:46:29;98142.53;;;-5.50;81.92
62655;BME280;48717;55.556;37.816;2023-02-24T12:58:17;97971.59;;;-6.42;82.88
62655;BME280;48717;55.556;37.816;2023-02-24T13:01:43;98115.22;;;-5.47;82.39
62655;BME280;48717;55.556;37.816;2023-02-24T13:04:41;98112.66;;;-5.47;82.29
62655;BME280;48717;55.556;37.816;2023-02-24T13:10:40;98117.94;;;-5.43;82.59
62655;BME280;48717;55.556;37.816;2023-02-24T13:20:24;98036.16;;;-5.81;81.39
62655;BME280;48717;55.556;37.816;2023-02-24T13:23:29;97975.97;;;-6.15;81.37
62655;BME280;48717;55.556;37.816;2023-02-24T13:26:25;97923.56;;;-6.46;81.82
62655;BME280;48717;55.556;37.816;2023-02-24T13:29:24;97999.84;;;-5.92;81.98
62655;BME280;48717;55.556;37.816;2023-02-24T13:34:59;97909.31;;;-6.38;80.54
62655;BME280;48717;55.556;37.816;2023-02-24T13:37:40;97999.06;;;-5.89;80.93
62655;BME280;48717;55.556;37.816;2023-02-24T13:40:50;98008.47;;;-5.65;80.95
62655;BME280;48717;55.556;37.816;2023-02-24T13:43:37;98006.81;;;-5.63;81.07
62655;BME280;48717;55.556;37.816;2023-02-24T13:46:21;97975.25;;;-5.85;81.64
62655;BME280;48717;55.556;37.816;2023-02-24T14:01:19;97914.06;;;-6.24;82.27
62655;BME280;48717;55.556;37.816;2023-02-24T14:04:29;97989.19;;;-5.78;82.62
62655;BME280;48717;55.556;37.816;2023-02-24T14:07:24;97996.53;;;-5.63;83.13
62655;BME280;48717;55.556;37.816;2023-02-24T14:10:26;97916.94;;;-6.15;83.02
62655;BME280;48717;55.556;37.816;2023-02-24T14:13:22;97858.84;;;-6.39;83.85
62655;BME280;48717;55.556;37.816;2023-02-24T14:15:57;97975.69;;;-5.72;83.45
62655;BME280;48717;55.556;37.816;2023-02-24T14:18:31;98036.06;;;-5.33;83.42
62655;BME280;48717;55.556;37.816;2023-02-24T14:21:19;98008.78;;;-5.56;84.09
62655;BME280;48717;55.556;37.816;2023-02-24T14:24:02;97859.44;;;-6.46;84.15
62655;BME280;48717;55.556;37.816;2023-02-24T14:26:43;97903.28;;;-6.16;83.82
62655;BME280;48717;55.556;37.816;2023-02-24T14:29:36;97986.31;;;-5.61;83.63
62655;BME280;48717;55.556;37.816;2023-02-24T14:32:22;97937.28;;;-5.95;84.13
62655;BME280;48717;55.556;37.816;2023-02-24T14:34:50;98072.75;;;-5.12;84.28
62655;BME280;48717;55.556;37.816;2023-02-24T14:37:24;97973.84;;;-5.77;84.29
62655;BME280;48717;55.556;37.816;2023-02-24T14:39:57;97997.47;;;-5.61;84.42
62655;BME280;48717;55.556;37.816;2023-02-24T14:42:29;97998.50;;;-5.56;84.92
62655;BME280;48717;55.556;37.816;2023-02-24T14:45:16;97900.84;;;-6.11;84.88
62655;BME280;48717;55.556;37.816;2023-02-24T14:48:00;97923.72;;;-5.91;85.03
62655;BME280;48717;55.556;37.816;2023-02-24T14:50:31;98059.66;;;-5.19;84.48
62655;BME280;48717;55.556;37.816;2023-02-24T14:53:06;98003.72;;;-5.53;85.86
62655;BME280;48717;55.556;37.816;2023-02-24T14:55:39;97977.22;;;-5.78;85.87
62655;BME280;48717;55.556;37.816;2023-02-24T14:58:41;98061.19;;;-5.25;87.43
62655;BME280;48717;55.556;37.816;2023-02-24T15:01:21;97900.31;;;-6.26;87.66
62655;BME280;48717;55.556;37.816;2023-02-24T15:04:10;97947.44;;;-5.98;88.18
62655;BME280;48717;55.556;37.816;2023-02-24T15:06:40;97957.56;;;-6.02;88.28
62655;BME280;48717;55.556;37.816;2023-02-24T15:09:16;97888.72;;;-6.41;88.61
62655;BME280;48717;55.556;37.816;2023-02-24T15:11:45;97998.31;;;-5.86;89.78
62655;BME280;48717;55.556;37.816;2023-02-24T15:14:28;97943.44;;;-6.16;91.23
62655;BME280;48717;55.556;37.816;2023-02-24T15:17:09;98064.81;;;-5.44;90.79
62655;BME280;48717;55.556;37.816;2023-02-24T15:19:39;97919.19;;;-6.24;91.45
62655;BME280;48717;55.556;37.816;2023-02-24T15:25:16;97884.78;;;-6.56;93.89
62655;BME280;48717;55.556;37.816;2023-02-24T15:28:00;97914.50;;;-6.36;93.12
62655;BME280;48717;55.556;37.816;2023-02-24T15:30:36;97871.75;;;-6.62;92.97
62655;BME280;48717;55.556;37.816;2023-02-24T15:33:17;98060.47;;;-5.46;94.20
62655;BME280;48717;55.556;37.816;2023-02-24T15:35:56;98050.78;;;-5.54;94.55
62655;BME280;48717;55.556;37.816;2023-02-24T15:38:30;98051.03;;;-5.46;93.90
62655;BME280;48717;55.556;37.816;2023-02-24T15:41:00;98064.06;;;-5.41;94.78
62655;BME280;48717;55.556;37.816;2023-02-24T15:43:33;98060.56;;;-5.43;95.39
62655;BME280;48717;55.556;37.816;2023-02-24T15:48:47;98058.81;;;-5.44;95.36
62655;BME280;48717;55.556;37.816;2023-02-24T15:51:31;98065.78;;;-5.40;95.26
62655;BME280;48717;55.556;37.816;2023-02-24T15:54:01;98033.53;;;-5.58;95.51
62655;BME280;48717;55.556;37.816;2023-02-24T15:56:31;98051.38;;;-5.37;95.25
62655;BME280;48717;55.556;37.816;2023-02-24T15:59:01;98042.47;;;-5.46;95.59
62655;BME280;48717;55.556;37.816;2023-02-24T16:01:32;97888.59;;;-6.44;96.13
62655;BME280;48717;55.556;37.816;2023-02-24T16:04:03;97861.94;;;-6.49;95.41
62655;BME280;48717;55.556;37.816;2023-02-24T16:06:45;97889.84;;;-6.33;95.29
62655;BME280;48717;55.556;37.816;2023-02-24T16:09:36;98045.25;;;-5.40;95.98
62655;BME280;48717;55.556;37.816;2023-02-24T16:12:14;98041.84;;;-5.39;95.68